Soaring Guidance
Issued by NWS Reno, NV

Home | Current Version | Previous Version | Text Only | Print | Product List | Glossary On
Versions: 1 2 3 4 5 6
000
UXUS97 KREV 271349
SRGREV

SOARING FORECAST
NATIONAL WEATHER SERVICE - RENO NV
700 AM PDT TUE SEP 27 2016

THIS SOARING FORECAST IS FOR THE EASTERN SIERRA AND WESTERN NEVADA
WITH SPECIFIC INDICES FOR THE GREATER RENO AREA.

THIS FORECAST IS PREPARED DAILY BY 700 AM AND IS NOT UPDATED.

FOR CURRENT FLIGHT CONDITIONS...FORECASTS...AND ADVISORIES...ACCESS
YOUR LOCAL BRIEFING OUTLET OR FLIGHT SERVICE STATION.

*******************************************************************
FORECASTED LOCAL INDICES FOR RENO:        TODAY     YESTERDAY
FORECASTED MAX TEMP AT RENO (DEG F).....     90          87
FORECASTED TRIGGER TEMPERATURE (DEG F)..     79          75
   EXCEEDED YESTERDAY BY 1155 AM PDT
FORECASTED MAXIMUM ALTITUDE (FT MSL)....  12600       11400
FORECASTED SOARING INDEX (FPM)..........    648         462
FORECASTED K-INDEX.........VALID 18Z....      5           2
FORECASTED K-INDEX.........VALID 00Z....      9           6
FORECASTED LIFTED INDEX....VALID 18Z....      9          12
FORECASTED LIFTED INDEX....VALID 00Z....      8          11

AFTERNOON WINDS ALOFT FORECAST
MSL (FT) WIND/TEMP
9000  9900/+15
10000 9900/+12
12000 9900/+07
14000 9901/+02
16000 9902/-03
18000 0405/-08
24000 1112/-20
30000 1427/-36
34000 1216/-46
39000 1011/-57

SLIDE MOUNTAIN DATA:
     DATE       TIME     TEMP  DEWPT   RH         WIND (MPH)
                        (F)   (F)           | DIR  SPEED GUST
2016-09-27    04:00      55    27     22    | 088    7   10
2016-09-27    03:50      55    27     22    | 086    9   14
2016-09-27    03:30      55    27     22    | 084    8   13
2016-09-27    03:20      55    29     24    | 083    9   14

RENO TAF FORECAST:
KRNO 271128Z 2712/2812 VRB04KT P6SM SKC

CARSON CITY TAF FORECAST:
KCXP 271128Z 2712/2812 VRB03KT P6SM SKC
     FM272000 08009KT P6SM SKC
     FM280200 VRB04KT P6SM SKC

OUTLOOK FOR THE RENO-CARSON CITY-MINDEN AREA:
.WEDNESDAY...SUNNY. HIGHS 86 TO 91. LIGHT WINDS.

SUNRISE AND SUNSET
SEPTEMBER 27 2016.....SUNRISE   652 AM PDT   SUNSET   647 PM PDT
SEPTEMBER 28 2016.....SUNRISE   653 AM PDT   SUNSET   645 PM PDT



USA.gov is the U.S. government's official web portal to all federal, state and local government web resources and services.